createdAt,value
2022-09-05T00:01:29.123Z,1.10
2022-09-05T00:04:24.043Z,0.80
2022-09-05T00:07:00.950Z,1.10
2022-09-05T00:10:05.758Z,1.13
2022-09-05T00:12:35.682Z,0.98
2022-09-05T00:15:18.901Z,1.00
2022-09-05T00:19:22.897Z,1.00
2022-09-05T00:24:26.335Z,0.98
2022-09-05T00:24:37.160Z,1.20
2022-09-05T00:26:52.576Z,1.02
2022-09-05T00:30:00.059Z,1.25
2022-09-05T00:32:27.594Z,1.20
2022-09-05T00:35:04.669Z,0.90
2022-09-05T00:37:36.077Z,0.90
2022-09-05T00:40:22.710Z,1.27
2022-09-05T00:42:56.937Z,0.90
2022-09-05T00:45:30.959Z,0.88
2022-09-05T00:48:04.455Z,1.02
2022-09-05T00:50:39.275Z,0.90
2022-09-05T00:53:12.731Z,1.23
2022-09-05T00:55:43.534Z,0.85
2022-09-05T00:58:33.877Z,1.20
2022-09-05T01:01:21.108Z,0.95
2022-09-05T01:03:59.416Z,1.00
2022-09-05T01:06:35.971Z,1.20
2022-09-05T01:09:16.026Z,0.85
2022-09-05T01:11:52.392Z,1.20
2022-09-05T01:14:37.150Z,0.77
2022-09-05T01:17:25.500Z,1.10
2022-09-05T01:20:19.889Z,1.25
2022-09-05T01:23:11.556Z,1.13
2022-09-05T01:25:54.756Z,1.17
2022-09-05T01:29:17.657Z,1.02
2022-09-05T01:31:25.136Z,1.52
2022-09-05T01:33:58.925Z,1.00
2022-09-05T01:36:41.273Z,1.02
2022-09-05T01:40:11.155Z,1.00
2022-09-05T01:42:23.237Z,1.33
2022-09-05T01:44:57.773Z,1.00
2022-09-05T01:47:50.137Z,1.10
2022-09-05T01:50:36.054Z,1.00
2022-09-05T01:53:17.067Z,1.00
2022-09-05T01:56:04.437Z,1.10
2022-09-05T01:58:50.880Z,1.27
2022-09-05T02:01:32.459Z,1.25
2022-09-05T02:04:32.471Z,1.15
2022-09-05T02:07:30.453Z,1.10
2022-09-05T02:10:13.976Z,1.10
2022-09-05T02:12:58.507Z,1.17
2022-09-05T02:15:41.928Z,0.95
2022-09-05T02:18:25.315Z,0.80
2022-09-05T02:20:57.397Z,1.10
2022-09-05T02:23:41.193Z,1.00
2022-09-05T02:26:17.845Z,1.27
2022-09-05T02:28:54.062Z,1.52
2022-09-05T02:31:27.886Z,1.10
2022-09-05T02:34:01.885Z,0.90
2022-09-05T02:36:38.467Z,1.00
2022-09-05T02:44:24.150Z,1.00
2022-09-05T02:45:17.796Z,0.90
2022-09-05T02:45:25.820Z,1.20
2022-09-05T02:48:14.865Z,1.48
2022-09-05T02:57:23.172Z,1.27
2022-09-05T02:57:25.517Z,1.02
2022-09-05T02:57:37.620Z,1.35
2022-09-05T02:59:43.913Z,1.50
2022-09-05T03:02:26.181Z,1.30
2022-09-05T03:05:04.706Z,1.20
2022-09-05T03:07:51.994Z,1.10
2022-09-05T03:10:53.893Z,0.95
2022-09-05T03:13:54.313Z,1.30
2022-09-05T03:16:52.314Z,1.35
2022-09-05T03:19:50.227Z,1.20
2022-09-05T03:23:00.449Z,1.50
2022-09-05T03:26:17.482Z,1.10
2022-09-05T03:29:17.570Z,1.10
2022-09-05T03:32:24.126Z,1.30
2022-09-05T03:35:26.207Z,1.27
2022-09-05T03:38:13.257Z,1.42
2022-09-05T03:40:53.453Z,1.30
2022-09-05T03:43:41.181Z,1.15
2022-09-05T03:46:17.354Z,1.38
2022-09-05T03:49:24.492Z,1.33
2022-09-05T03:57:13.383Z,0.95
2022-09-05T03:57:22.793Z,2.30
2022-09-05T03:58:56.318Z,1.17
2022-09-05T04:03:20.239Z,1.33
2022-09-05T04:08:06.642Z,1.30
2022-09-05T04:08:17.617Z,1.40
2022-09-05T04:10:10.592Z,2.63
2022-09-05T04:12:48.585Z,2.17
2022-09-05T04:15:31.737Z,1.50
2022-09-05T04:18:03.844Z,3.80
2022-09-05T04:20:40.871Z,1.40
2022-09-05T04:23:17.241Z,1.35
2022-09-05T04:25:58.526Z,1.40
2022-09-05T04:28:54.017Z,1.35
2022-09-05T04:31:30.843Z,1.20
2022-09-05T04:34:06.515Z,1.65
2022-09-05T04:36:36.546Z,1.50
2022-09-05T04:39:10.622Z,1.70
2022-09-05T04:41:44.609Z,2.83
2022-09-05T04:44:16.866Z,1.63
2022-09-05T04:46:49.823Z,1.50
2022-09-05T04:49:24.480Z,1.33
2022-09-05T04:52:04.431Z,1.42
2022-09-05T04:54:36.997Z,1.40
2022-09-05T04:57:14.771Z,1.38
2022-09-05T05:02:50.656Z,1.73
2022-09-05T05:06:12.750Z,1.55
2022-09-05T05:06:16.666Z,1.25
2022-09-05T05:08:39.174Z,1.60
2022-09-05T05:15:45.516Z,2.20
2022-09-05T05:18:02.898Z,1.40
2022-09-05T05:18:13.271Z,1.73
2022-09-05T05:19:48.915Z,2.00
2022-09-05T05:22:38.236Z,1.60
2022-09-05T05:25:12.896Z,1.50
2022-09-05T05:27:45.940Z,1.60
2022-09-05T05:30:25.547Z,1.80
2022-09-05T05:32:55.376Z,1.33
2022-09-05T05:35:28.366Z,1.40
2022-09-05T05:38:01.058Z,1.15
2022-09-05T05:40:31.679Z,1.60
2022-09-05T05:43:15.284Z,1.67
2022-09-05T05:45:44.442Z,1.83
2022-09-05T05:48:29.644Z,1.50
2022-09-05T05:51:09.322Z,1.73
2022-09-05T05:53:52.171Z,1.50
2022-09-05T05:56:37.399Z,1.70
2022-09-05T05:59:56.367Z,2.10
2022-09-05T06:03:25.852Z,2.05
2022-09-05T06:06:31.588Z,1.83
2022-09-05T06:14:51.646Z,1.85
2022-09-05T06:15:01.921Z,1.23
2022-09-05T06:16:08.289Z,1.88
2022-09-05T06:19:01.978Z,1.40
2022-09-05T06:22:14.096Z,1.67
2022-09-05T06:25:26.826Z,3.85
2022-09-05T06:28:18.455Z,1.40
2022-09-05T06:30:57.185Z,1.98
2022-09-05T06:33:54.102Z,1.10
2022-09-05T06:36:44.215Z,1.10
2022-09-05T06:39:17.076Z,1.80
2022-09-05T06:42:01.536Z,2.67
2022-09-05T06:44:40.480Z,1.45
2022-09-05T06:47:23.895Z,1.48
2022-09-05T06:50:26.941Z,1.30
2022-09-05T06:53:21.052Z,1.50
2022-09-05T06:56:14.415Z,0.90
2022-09-05T06:59:30.378Z,1.30
2022-09-05T07:02:08.800Z,1.10
2022-09-05T07:05:31.421Z,0.98
2022-09-05T07:07:37.794Z,1.10
2022-09-05T07:10:37.543Z,0.90
2022-09-05T07:13:12.667Z,1.30
2022-09-05T07:15:51.327Z,1.00
2022-09-05T07:18:26.827Z,0.80
2022-09-05T07:21:17.738Z,0.82
2022-09-05T07:24:09.938Z,1.27
2022-09-05T07:26:53.694Z,1.02
2022-09-05T07:29:27.631Z,0.85
2022-09-05T07:31:57.152Z,1.30
2022-09-05T07:34:29.585Z,1.00
2022-09-05T07:37:13.860Z,0.60
2022-09-05T07:39:48.181Z,0.75
2022-09-05T07:42:21.854Z,0.82
2022-09-05T07:44:54.282Z,0.70
2022-09-05T07:47:25.320Z,0.80
2022-09-05T07:50:30.876Z,0.63
2022-09-05T07:56:51.884Z,0.80
2022-09-05T07:56:52.290Z,0.90
2022-09-05T07:58:33.567Z,0.70
2022-09-05T08:01:02.844Z,1.45
2022-09-05T08:03:31.851Z,2.05
2022-09-05T08:06:05.442Z,1.00
2022-09-05T08:08:37.464Z,0.93
2022-09-05T08:11:25.783Z,0.55
2022-09-05T08:14:32.700Z,1.20
2022-09-05T08:16:48.460Z,0.93
2022-09-05T08:19:47.989Z,0.80
2022-09-05T08:22:22.515Z,0.98
2022-09-05T08:24:59.813Z,1.15
2022-09-05T08:27:32.123Z,0.82
2022-09-05T08:30:24.857Z,0.68
2022-09-05T08:33:11.350Z,1.55
2022-09-05T08:35:44.823Z,0.55
2022-09-05T08:38:15.129Z,0.57
2022-09-05T08:40:50.340Z,0.55
2022-09-05T08:46:23.502Z,0.82
2022-09-05T08:46:41.811Z,0.70
2022-09-05T08:49:40.355Z,0.90
2022-09-05T08:52:13.646Z,0.60
2022-09-05T08:55:06.257Z,0.60
2022-09-05T08:58:00.667Z,0.57
2022-09-05T09:00:31.821Z,0.88
2022-09-05T09:03:26.428Z,0.45
2022-09-05T09:06:16.148Z,0.60
2022-09-05T09:08:56.669Z,0.70
2022-09-05T09:11:32.213Z,0.70
2022-09-05T09:14:30.796Z,0.60
2022-09-05T09:19:47.410Z,0.50
2022-09-05T09:22:22.084Z,0.80
2022-09-05T09:25:11.927Z,0.80
2022-09-05T09:28:48.823Z,0.52
2022-09-05T09:30:59.660Z,0.75
2022-09-05T09:33:36.915Z,0.82
2022-09-05T09:36:14.784Z,0.88
2022-09-05T09:38:59.155Z,0.68
2022-09-05T09:41:53.832Z,0.70
2022-09-05T09:44:58.147Z,0.52
2022-09-05T09:47:51.579Z,0.60
2022-09-05T09:50:36.108Z,0.75
2022-09-05T09:53:24.589Z,0.55
2022-09-05T09:56:25.714Z,0.40
2022-09-05T09:59:18.356Z,0.75
2022-09-05T10:01:55.457Z,0.40
2022-09-05T10:10:39.812Z,0.47
2022-09-05T10:10:53.743Z,0.47
2022-09-05T10:11:54.263Z,0.40
2022-09-05T10:17:29.066Z,0.50
2022-09-05T10:20:20.185Z,0.82
2022-09-05T10:23:03.057Z,0.80
2022-09-05T10:25:52.662Z,1.10
2022-09-05T10:28:27.761Z,0.70
2022-09-05T10:32:37.695Z,0.73
2022-09-05T10:35:14.308Z,0.90
2022-09-05T10:36:52.339Z,1.05
2022-09-05T10:39:24.066Z,0.50
2022-09-05T10:42:03.090Z,0.63
2022-09-05T10:44:40.673Z,0.52
2022-09-05T10:47:18.763Z,0.70
2022-09-05T10:49:50.803Z,0.75
2022-09-05T10:52:23.299Z,0.70
2022-09-05T10:55:13.798Z,0.50
2022-09-05T10:57:56.041Z,0.80
2022-09-05T11:02:19.846Z,0.77
2022-09-05T11:03:31.010Z,0.47
2022-09-05T11:06:09.138Z,1.10
2022-09-05T11:08:43.453Z,1.83
2022-09-05T11:11:26.118Z,0.55
2022-09-05T11:14:18.650Z,0.90
2022-09-05T11:17:00.279Z,0.50
2022-09-05T11:19:36.590Z,0.75
2022-09-05T11:22:22.448Z,0.88
2022-09-05T11:24:55.761Z,1.13
2022-09-05T11:27:31.086Z,0.90
2022-09-05T11:30:04.040Z,0.93
2022-09-05T11:39:48.981Z,0.60
2022-09-05T11:39:53.632Z,0.60
2022-09-05T11:40:08.461Z,0.55
2022-09-05T11:42:26.420Z,0.70
2022-09-05T11:45:10.540Z,0.88
2022-09-05T11:47:56.870Z,0.60
2022-09-05T11:50:58.396Z,0.65
2022-09-05T11:53:45.684Z,0.50
2022-09-05T11:56:42.672Z,0.57
2022-09-05T12:00:30.924Z,0.70
2022-09-05T12:03:57.389Z,0.75
2022-09-05T12:06:32.184Z,0.55
2022-09-05T12:09:06.330Z,0.60
2022-09-05T12:11:45.872Z,0.52
2022-09-05T12:14:34.814Z,0.68
2022-09-05T12:17:10.252Z,0.57
2022-09-05T12:19:54.966Z,0.50
2022-09-05T12:22:29.708Z,0.47
2022-09-05T12:27:38.396Z,0.80
2022-09-05T12:29:29.689Z,0.98
2022-09-05T12:33:03.335Z,0.88
2022-09-05T12:36:08.393Z,0.93
2022-09-05T12:40:44.838Z,0.70
2022-09-05T12:41:35.804Z,0.63
2022-09-05T12:44:29.932Z,0.50
2022-09-05T12:45:56.394Z,0.90
2022-09-05T12:48:38.665Z,0.60
2022-09-05T12:51:10.753Z,0.77
2022-09-05T12:53:46.350Z,0.57
2022-09-05T12:59:56.676Z,0.75
2022-09-05T13:03:01.348Z,0.60
2022-09-05T13:03:04.928Z,0.40
2022-09-05T13:05:02.635Z,0.60
2022-09-05T13:07:41.141Z,0.60
2022-09-05T13:14:49.601Z,0.82
2022-09-05T13:14:53.191Z,0.60
2022-09-05T13:15:59.585Z,0.82
2022-09-05T13:18:34.223Z,0.90
2022-09-05T13:21:05.460Z,0.50
2022-09-05T13:23:37.712Z,0.82
2022-09-05T13:26:12.435Z,0.57
2022-09-05T13:28:49.002Z,0.65
2022-09-05T13:37:58.605Z,0.43
2022-09-05T13:38:06.455Z,0.85
2022-09-05T13:38:20.334Z,1.23
2022-09-05T13:40:33.945Z,0.65
2022-09-05T13:43:09.815Z,0.80
2022-09-05T13:46:03.648Z,0.60
2022-09-05T13:51:33.015Z,0.70
2022-09-05T13:54:34.131Z,0.50
2022-09-05T13:57:16.510Z,0.80
2022-09-05T14:00:47.066Z,0.70
2022-09-05T14:03:38.731Z,0.60
2022-09-05T14:06:47.043Z,0.50
2022-09-05T14:09:44.696Z,0.40
2022-09-05T14:12:29.434Z,0.70
2022-09-05T14:15:10.014Z,0.98
2022-09-05T14:17:59.878Z,0.60
2022-09-05T14:20:49.910Z,1.73
2022-09-05T14:23:20.563Z,1.10
2022-09-05T14:25:52.498Z,0.88
2022-09-05T14:28:27.082Z,0.60
2022-09-05T14:35:00.731Z,0.70
2022-09-05T14:37:35.331Z,0.50
2022-09-05T14:37:55.499Z,0.90
2022-09-05T14:40:36.892Z,1.05
2022-09-05T14:43:30.986Z,1.00
2022-09-05T14:46:13.598Z,1.00
2022-09-05T14:49:18.133Z,1.40
2022-09-05T14:51:48.059Z,1.15
2022-09-05T15:00:25.561Z,0.80
2022-09-05T15:02:46.197Z,1.10
2022-09-05T15:03:03.719Z,0.63
2022-09-05T15:05:41.511Z,0.68
2022-09-05T15:08:38.220Z,0.90
2022-09-05T15:12:21.894Z,0.80
2022-09-05T15:13:58.290Z,0.73
2022-09-05T15:16:27.275Z,0.73
2022-09-05T15:18:58.528Z,0.60
2022-09-05T15:21:34.928Z,0.60
2022-09-05T15:24:17.249Z,0.65
2022-09-05T15:26:53.140Z,0.90
2022-09-05T15:29:24.563Z,0.70
2022-09-05T15:32:03.891Z,0.60
2022-09-05T15:34:39.602Z,0.80
2022-09-05T15:37:30.712Z,1.27
2022-09-05T15:40:07.402Z,1.00
2022-09-05T15:42:52.502Z,0.93
2022-09-05T15:45:27.158Z,1.00
2022-09-05T15:48:05.526Z,1.33
2022-09-05T15:50:40.861Z,0.82
2022-09-05T15:53:15.566Z,1.30
2022-09-05T15:55:50.419Z,0.73
2022-09-05T15:58:29.954Z,1.02
2022-09-05T16:01:48.531Z,0.80
2022-09-05T16:10:18.166Z,1.10
2022-09-05T16:10:35.757Z,1.17
2022-09-05T16:10:58.329Z,0.85
2022-09-05T16:12:46.148Z,0.80
2022-09-05T16:17:15.562Z,1.15
2022-09-05T16:23:13.911Z,1.00
2022-09-05T16:23:25.848Z,0.82
2022-09-05T16:23:58.063Z,1.10
2022-09-05T16:26:34.536Z,1.45
2022-09-05T16:29:06.879Z,1.63
2022-09-05T16:31:40.075Z,1.48
2022-09-05T16:34:17.716Z,1.80
2022-09-05T16:37:07.855Z,1.90
2022-09-05T16:39:38.947Z,2.63
2022-09-05T16:42:19.171Z,2.30
2022-09-05T16:44:52.083Z,2.20
2022-09-05T16:47:25.695Z,2.42
2022-09-05T16:50:00.266Z,2.08
2022-09-05T16:52:35.463Z,1.40
2022-09-05T16:55:10.021Z,1.50
2022-09-05T16:57:55.794Z,1.67
2022-09-05T17:00:26.822Z,1.60
2022-09-05T17:02:59.902Z,1.80
2022-09-05T17:05:33.580Z,1.80
2022-09-05T17:08:05.784Z,1.38
2022-09-05T17:10:42.682Z,1.55
2022-09-05T17:13:16.616Z,1.42
2022-09-05T17:15:52.019Z,1.50
2022-09-05T17:18:25.890Z,1.42
2022-09-05T17:20:58.621Z,1.88
2022-09-05T17:27:33.898Z,1.60
2022-09-05T17:29:35.094Z,1.40
2022-09-05T17:31:14.554Z,1.48
2022-09-05T17:32:41.903Z,1.42
2022-09-05T17:35:42.956Z,2.00
2022-09-05T17:38:39.495Z,1.75
2022-09-05T17:41:37.312Z,1.60
2022-09-05T17:44:11.600Z,2.05
2022-09-05T17:46:51.210Z,1.80
2022-09-05T17:49:42.989Z,1.90
2022-09-05T17:52:29.540Z,1.77
2022-09-05T17:54:59.975Z,1.90
2022-09-05T18:00:44.632Z,2.20
2022-09-05T18:04:16.436Z,2.00
2022-09-05T18:07:00.298Z,2.25
2022-09-05T18:13:31.693Z,2.33
2022-09-05T18:16:08.282Z,1.83
2022-09-05T18:19:33.590Z,2.92
2022-09-05T18:21:49.765Z,2.58
2022-09-05T18:24:32.695Z,3.63
2022-09-05T18:27:29.438Z,3.08
2022-09-05T18:30:06.073Z,3.22
2022-09-05T18:32:47.305Z,3.15
2022-09-05T18:35:32.440Z,3.28
2022-09-05T18:38:51.640Z,3.97
2022-09-05T18:41:21.762Z,3.30
2022-09-05T18:44:13.152Z,3.88
2022-09-05T18:46:50.678Z,3.10
2022-09-05T18:50:21.752Z,3.45
2022-09-05T18:52:23.849Z,2.92
2022-09-05T18:56:11.346Z,2.75
2022-09-05T18:57:49.406Z,2.25
2022-09-05T19:00:24.919Z,3.40
2022-09-05T19:03:06.741Z,3.10
2022-09-05T19:05:39.308Z,3.03
2022-09-05T19:08:29.080Z,2.40
2022-09-05T19:11:01.918Z,2.53
2022-09-05T19:13:57.778Z,3.50
2022-09-05T19:16:43.041Z,3.65
2022-09-05T19:19:16.454Z,3.80
2022-09-05T19:21:56.279Z,3.42
2022-09-05T19:24:45.621Z,3.22
2022-09-05T19:28:57.046Z,2.33
2022-09-05T19:36:51.245Z,2.53
2022-09-05T19:36:57.862Z,2.90
2022-09-05T19:37:04.359Z,2.67
2022-09-05T19:40:46.681Z,2.25
2022-09-05T19:47:26.645Z,2.72
2022-09-05T19:47:39.634Z,2.65
2022-09-05T19:50:31.174Z,1.88
2022-09-05T19:53:08.967Z,2.00
2022-09-05T19:55:38.909Z,1.80
2022-09-05T20:01:02.183Z,2.40
2022-09-05T20:03:39.129Z,2.55
2022-09-05T20:06:29.115Z,2.15
2022-09-05T20:09:09.724Z,2.83
2022-09-05T20:11:45.630Z,1.73
2022-09-05T20:14:22.275Z,1.90
2022-09-05T20:16:51.784Z,1.67
2022-09-05T20:19:28.671Z,1.85
2022-09-05T20:22:12.779Z,1.92
2022-09-05T20:24:49.570Z,1.80
2022-09-05T20:27:18.559Z,2.10
2022-09-05T20:29:55.792Z,1.70
2022-09-05T20:32:39.413Z,2.55
2022-09-05T20:38:20.471Z,1.95
2022-09-05T20:43:14.514Z,1.98
2022-09-05T20:43:31.288Z,1.90
2022-09-05T20:43:52.508Z,1.80
2022-09-05T20:51:10.638Z,2.80
2022-09-05T20:54:10.094Z,2.00
2022-09-05T20:54:27.969Z,2.30
2022-09-05T20:55:38.882Z,2.28
2022-09-05T20:58:13.605Z,2.03
2022-09-05T21:01:15.540Z,2.25
2022-09-05T21:03:41.553Z,1.75
2022-09-05T21:08:52.239Z,2.10
2022-09-05T21:11:30.417Z,2.97
2022-09-05T21:14:02.170Z,2.20
2022-09-05T21:16:32.775Z,2.00
2022-09-05T21:19:03.203Z,2.10
2022-09-05T21:24:16.842Z,2.42
2022-09-05T21:26:49.301Z,2.10
2022-09-05T21:29:27.223Z,2.45
2022-09-05T21:32:02.095Z,2.42
2022-09-05T21:34:35.475Z,2.10
2022-09-05T21:37:07.083Z,2.38
2022-09-05T21:39:40.326Z,2.05
2022-09-05T21:46:04.617Z,2.85
2022-09-05T21:47:37.838Z,2.10
2022-09-05T21:48:02.773Z,2.83
2022-09-05T21:50:40.091Z,2.20
2022-09-05T21:54:42.620Z,2.50
2022-09-05T21:59:17.640Z,2.25
2022-09-05T21:59:33.587Z,2.63
2022-09-05T22:01:52.487Z,2.20
2022-09-05T22:04:24.826Z,2.05
2022-09-05T22:06:57.674Z,2.25
2022-09-05T22:09:26.478Z,2.50
2022-09-05T22:11:55.214Z,2.15
2022-09-05T22:14:25.879Z,1.98
2022-09-05T22:16:57.643Z,2.15
2022-09-05T22:19:37.138Z,1.70
2022-09-05T22:22:17.187Z,4.15
2022-09-05T22:24:57.302Z,2.40
2022-09-05T22:27:30.210Z,2.10
2022-09-05T22:29:58.951Z,1.80
2022-09-05T22:32:34.529Z,1.90
2022-09-05T22:35:15.942Z,1.73
2022-09-05T22:38:03.510Z,1.98
2022-09-05T22:40:34.264Z,1.95
2022-09-05T22:43:05.240Z,1.88
2022-09-05T22:45:35.959Z,2.22
2022-09-05T22:48:08.691Z,2.13
2022-09-05T22:50:37.447Z,1.60
2022-09-05T22:53:08.722Z,2.63
2022-09-05T22:55:37.606Z,2.20
2022-09-05T22:58:07.292Z,2.28
2022-09-05T23:00:36.339Z,2.30
2022-09-05T23:03:06.746Z,2.22
2022-09-05T23:08:05.887Z,1.98
2022-09-05T23:10:36.433Z,1.73
2022-09-05T23:13:06.668Z,1.90
2022-09-05T23:15:35.640Z,2.25
2022-09-05T23:18:05.249Z,2.22
2022-09-05T23:20:35.059Z,2.92
2022-09-05T23:23:05.930Z,2.22
2022-09-05T23:28:07.078Z,1.80
2022-09-05T23:30:36.132Z,2.00
2022-09-05T23:33:06.799Z,1.85
2022-09-05T23:35:35.754Z,2.30
2022-09-05T23:38:04.594Z,2.50
2022-09-05T23:40:33.015Z,1.80
2022-09-05T23:43:03.401Z,1.95
2022-09-05T23:45:32.626Z,2.08
2022-09-05T23:48:01.679Z,2.65
2022-09-05T23:50:30.262Z,2.22
2022-09-05T23:53:03.726Z,2.53
2022-09-05T23:55:32.935Z,2.20
2022-09-05T23:58:03.091Z,2.17
